createdAt,value
2023-03-12T00:01:15.914Z,24.28
2023-03-12T00:04:22.107Z,24.61
2023-03-12T00:07:29.060Z,25.84
2023-03-12T00:10:38.575Z,28.18
2023-03-12T00:13:45.749Z,24.93
2023-03-12T00:16:51.744Z,23.23
2023-03-12T00:20:01.774Z,22.47
2023-03-12T00:23:08.003Z,20.61
2023-03-12T00:26:19.992Z,19.20
2023-03-12T00:29:26.077Z,18.12
2023-03-12T00:32:35.403Z,18.62
2023-03-12T00:35:42.414Z,18.40
2023-03-12T00:38:49.253Z,18.14
2023-03-12T00:41:57.780Z,20.16
2023-03-12T00:45:04.728Z,20.77
2023-03-12T00:48:11.226Z,17.24
2023-03-12T00:51:18.815Z,16.77
2023-03-12T00:54:25.883Z,17.13
2023-03-12T00:57:35.384Z,16.76
2023-03-12T01:00:41.460Z,16.11
2023-03-12T01:03:49.048Z,16.45
2023-03-12T01:06:56.082Z,15.68
2023-03-12T01:10:03.272Z,15.64
2023-03-12T01:13:12.210Z,16.34
2023-03-12T01:16:19.242Z,16.71
2023-03-12T01:19:25.333Z,17.76
2023-03-12T01:22:32.907Z,18.42
2023-03-12T01:25:39.707Z,18.22
2023-03-12T01:28:49.290Z,17.78
2023-03-12T01:31:55.329Z,17.85
2023-03-12T01:35:03.217Z,18.02
2023-03-12T01:38:09.891Z,17.83
2023-03-12T01:41:16.774Z,18.06
2023-03-12T01:44:25.326Z,17.75
2023-03-12T01:47:34.819Z,17.82
2023-03-12T01:50:46.067Z,18.36
2023-03-12T01:53:58.609Z,18.80
2023-03-12T01:57:09.357Z,18.70
2023-03-12T02:00:26.747Z,19.84
2023-03-12T02:03:38.406Z,21.51
2023-03-12T02:06:56.265Z,23.78
2023-03-12T02:10:02.452Z,27.77
2023-03-12T02:13:10.167Z,28.28
2023-03-12T02:16:19.100Z,26.64
2023-03-12T02:19:46.457Z,27.12
2023-03-12T02:23:05.899Z,25.88
2023-03-12T02:26:17.941Z,22.39
2023-03-12T02:29:25.654Z,22.80
2023-03-12T02:32:41.393Z,21.61
2023-03-12T02:35:51.042Z,20.66
2023-03-12T02:38:59.833Z,20.41
2023-03-12T02:42:09.955Z,22.12
2023-03-12T02:45:16.226Z,22.53
2023-03-12T02:48:23.211Z,24.74
2023-03-12T02:51:29.524Z,26.44
2023-03-12T02:54:36.342Z,27.16
2023-03-12T02:57:45.221Z,24.49
2023-03-12T03:00:54.506Z,23.28
2023-03-12T03:04:00.606Z,20.54
2023-03-12T03:07:12.687Z,18.16
2023-03-12T03:10:19.620Z,18.42
2023-03-12T03:13:29.208Z,17.82
2023-03-12T03:16:35.248Z,17.37
2023-03-12T03:19:42.289Z,18.64
2023-03-12T03:22:49.429Z,20.39
2023-03-12T03:25:56.766Z,20.27
2023-03-12T03:29:05.507Z,20.47
2023-03-12T03:32:12.412Z,20.34
2023-03-12T03:35:18.906Z,19.94
2023-03-12T03:38:26.660Z,22.20
2023-03-12T03:41:32.927Z,23.65
2023-03-12T03:44:42.521Z,24.35
2023-03-12T03:47:48.681Z,24.99
2023-03-12T03:50:55.655Z,23.63
2023-03-12T03:54:02.941Z,23.35
2023-03-12T03:57:10.353Z,22.80
2023-03-12T04:00:20.818Z,22.93
2023-03-12T04:03:30.895Z,23.57
2023-03-12T04:06:37.010Z,22.40
2023-03-12T04:09:49.328Z,21.88
2023-03-12T04:12:55.767Z,23.14
2023-03-12T04:16:05.640Z,23.09
2023-03-12T04:19:11.710Z,23.77
2023-03-12T04:22:18.684Z,24.63
2023-03-12T04:25:25.609Z,23.46
2023-03-12T04:28:33.599Z,22.95
2023-03-12T04:31:44.090Z,22.60
2023-03-12T04:34:51.114Z,21.68
2023-03-12T04:37:57.256Z,21.80
2023-03-12T04:41:21.022Z,22.17
2023-03-12T04:44:47.431Z,23.89
2023-03-12T04:47:57.568Z,23.19
2023-03-12T04:51:03.648Z,22.65
2023-03-12T04:54:12.471Z,22.92
2023-03-12T04:57:20.546Z,22.26
2023-03-12T05:00:28.389Z,23.46
2023-03-12T05:03:37.029Z,22.28
2023-03-12T05:06:46.462Z,22.20
2023-03-12T05:09:52.338Z,22.02
2023-03-12T05:12:59.238Z,21.75
2023-03-12T05:16:06.030Z,21.63
2023-03-12T05:19:21.777Z,21.77
2023-03-12T05:22:28.770Z,21.52
2023-03-12T05:25:35.733Z,21.32
2023-03-12T05:28:41.803Z,20.62
2023-03-12T05:31:52.031Z,19.74
2023-03-12T05:35:03.743Z,21.10
2023-03-12T05:38:10.858Z,33.36
2023-03-12T05:41:25.353Z,43.91
2023-03-12T05:44:35.835Z,45.32
2023-03-12T05:47:42.715Z,52.08
2023-03-12T05:50:52.051Z,51.44
2023-03-12T05:53:59.533Z,52.45
2023-03-12T05:57:06.460Z,46.65
2023-03-12T06:00:17.140Z,49.82
2023-03-12T06:03:33.910Z,61.39
2023-03-12T06:06:42.580Z,46.29
2023-03-12T06:09:49.437Z,44.49
2023-03-12T06:12:56.180Z,42.56
2023-03-12T06:16:07.412Z,36.94
2023-03-12T06:19:21.449Z,36.02
2023-03-12T06:22:32.455Z,37.56
2023-03-12T06:25:39.681Z,37.07
2023-03-12T06:28:48.954Z,36.94
2023-03-12T06:31:56.288Z,43.25
2023-03-12T06:35:04.796Z,44.08
2023-03-12T06:38:13.331Z,38.95
2023-03-12T06:41:24.229Z,40.32
2023-03-12T06:44:30.245Z,40.67
2023-03-12T06:47:37.143Z,36.59
2023-03-12T06:50:45.706Z,30.12
2023-03-12T06:53:55.146Z,33.81
2023-03-12T06:57:01.988Z,36.40
2023-03-12T07:00:19.133Z,41.48
2023-03-12T07:03:25.553Z,40.18
2023-03-12T07:06:32.293Z,38.20
2023-03-12T07:09:40.886Z,33.43
2023-03-12T07:12:48.274Z,32.90
2023-03-12T07:15:55.235Z,29.94
2023-03-12T07:19:02.120Z,28.77
2023-03-12T07:22:08.050Z,29.57
2023-03-12T07:25:19.112Z,28.39
2023-03-12T07:28:26.008Z,26.38
2023-03-12T07:31:32.904Z,27.46
2023-03-12T07:34:39.032Z,33.05
2023-03-12T07:37:45.922Z,31.54
2023-03-12T07:40:59.077Z,28.39
2023-03-12T07:44:06.068Z,32.99
2023-03-12T07:47:23.653Z,31.62
2023-03-12T07:50:35.890Z,28.89
2023-03-12T07:53:42.545Z,28.73
2023-03-12T07:56:52.167Z,30.79
2023-03-12T07:59:58.497Z,30.46
2023-03-12T08:03:05.386Z,28.68
2023-03-12T08:06:12.249Z,29.16
2023-03-12T08:09:19.450Z,34.81
2023-03-12T08:12:28.017Z,35.94
2023-03-12T08:15:35.222Z,30.51
2023-03-12T08:18:43.231Z,34.70
2023-03-12T08:21:50.324Z,38.58
2023-03-12T08:25:00.250Z,33.75
2023-03-12T08:28:14.819Z,33.89
2023-03-12T08:31:20.842Z,39.62
2023-03-12T08:34:27.555Z,39.87
2023-03-12T08:37:36.384Z,43.28
2023-03-12T08:40:43.234Z,36.48
2023-03-12T08:43:51.929Z,43.58
2023-03-12T08:46:58.925Z,25.22
2023-03-12T08:50:11.513Z,30.64
2023-03-12T08:53:21.298Z,29.56
2023-03-12T08:56:27.518Z,16.20
2023-03-12T08:59:37.313Z,16.59
2023-03-12T09:02:43.618Z,15.03
2023-03-12T09:05:52.196Z,17.30
2023-03-12T09:08:58.095Z,12.19
2023-03-12T09:12:18.067Z,21.21
2023-03-12T09:15:29.347Z,26.89
2023-03-12T09:18:39.977Z,21.90
2023-03-12T09:21:54.065Z,14.36
2023-03-12T09:25:00.972Z,17.86
2023-03-12T09:28:09.730Z,21.00
2023-03-12T09:31:24.780Z,16.86
2023-03-12T09:34:30.734Z,13.92
2023-03-12T09:37:38.495Z,14.05
2023-03-12T09:40:50.971Z,16.37
2023-03-12T09:44:05.763Z,16.88
2023-03-12T09:47:31.057Z,23.27
2023-03-12T09:50:44.014Z,12.79
2023-03-12T09:53:56.689Z,11.15
2023-03-12T09:57:14.478Z,11.19
2023-03-12T10:00:25.060Z,6.92
2023-03-12T10:04:10.007Z,9.84
2023-03-12T10:07:30.941Z,7.46
2023-03-12T10:10:59.672Z,9.31
2023-03-12T10:14:29.724Z,9.77
2023-03-12T10:17:59.132Z,9.58
2023-03-12T10:21:27.023Z,15.30
2023-03-12T10:24:54.491Z,7.71
2023-03-12T10:28:14.688Z,11.70
2023-03-12T10:31:29.479Z,15.66
2023-03-12T10:34:46.186Z,14.40
2023-03-12T10:38:01.307Z,14.92
2023-03-12T10:41:19.353Z,8.71
2023-03-12T10:44:28.673Z,8.75
2023-03-12T10:47:40.030Z,9.53
2023-03-12T10:50:46.998Z,9.78
2023-03-12T10:53:55.549Z,8.26
2023-03-12T10:57:02.990Z,10.98
2023-03-12T11:00:22.480Z,16.91
2023-03-12T11:03:30.230Z,10.66
2023-03-12T11:06:43.110Z,12.27
2023-03-12T11:10:18.965Z,11.07
2023-03-12T11:13:31.048Z,5.85
2023-03-12T11:16:37.904Z,4.90
2023-03-12T11:19:43.833Z,4.93
2023-03-12T11:22:53.045Z,4.76
2023-03-12T11:26:05.909Z,5.38
2023-03-12T11:29:28.366Z,11.22
2023-03-12T11:32:40.593Z,5.91
2023-03-12T11:36:11.561Z,4.94
2023-03-12T11:39:39.583Z,7.33
2023-03-12T11:43:39.927Z,5.13
2023-03-12T11:47:18.155Z,3.78
2023-03-12T11:50:50.231Z,5.65
2023-03-12T11:54:33.114Z,8.00
2023-03-12T11:58:02.630Z,10.59
2023-03-12T12:01:22.360Z,8.84
2023-03-12T12:05:09.524Z,11.78
2023-03-12T12:08:56.812Z,4.87
2023-03-12T12:12:24.464Z,5.66
2023-03-12T12:15:49.899Z,5.65
2023-03-12T12:19:21.152Z,6.30
2023-03-12T12:22:55.684Z,5.17
2023-03-12T12:26:14.945Z,6.78
2023-03-12T12:29:54.032Z,11.91
2023-03-12T12:33:27.797Z,6.56
2023-03-12T12:36:39.389Z,5.67
2023-03-12T12:40:01.356Z,10.01
2023-03-12T12:43:30.961Z,12.92
2023-03-12T12:46:45.514Z,8.36
2023-03-12T12:50:02.417Z,4.00
2023-03-12T12:53:26.252Z,8.88
2023-03-12T12:56:47.624Z,9.34
2023-03-12T13:00:31.120Z,10.84
2023-03-12T13:03:37.569Z,6.60
2023-03-12T13:07:07.588Z,4.82
2023-03-12T13:10:53.375Z,7.55
2023-03-12T13:14:25.731Z,8.81
2023-03-12T13:17:39.130Z,10.88
2023-03-12T13:21:11.790Z,10.88
2023-03-12T13:24:34.658Z,12.77
2023-03-12T13:27:44.099Z,12.06
2023-03-12T13:30:53.611Z,13.64
2023-03-12T13:34:18.376Z,13.01
2023-03-12T13:37:51.221Z,15.67
2023-03-12T13:41:03.870Z,14.68
2023-03-12T13:44:34.279Z,13.63
2023-03-12T13:47:47.561Z,9.70
2023-03-12T13:50:58.981Z,11.17
2023-03-12T13:54:08.708Z,11.98
2023-03-12T13:57:36.749Z,11.08
2023-03-12T14:00:57.016Z,11.79
2023-03-12T14:04:10.789Z,9.01
2023-03-12T14:07:52.828Z,9.49
2023-03-12T14:11:33.659Z,12.29
2023-03-12T14:15:13.226Z,14.34
2023-03-12T14:18:27.220Z,14.63
2023-03-12T14:21:41.644Z,13.52
2023-03-12T14:24:59.254Z,13.21
2023-03-12T14:28:14.332Z,14.09
2023-03-12T14:31:29.054Z,11.71
2023-03-12T14:34:48.216Z,10.87
2023-03-12T14:38:06.260Z,11.82
2023-03-12T14:41:23.003Z,12.36
2023-03-12T14:44:32.732Z,13.59
2023-03-12T14:47:49.002Z,12.90
2023-03-12T14:50:56.420Z,12.88
2023-03-12T14:54:07.102Z,11.57
2023-03-12T14:57:24.739Z,12.39
2023-03-12T15:00:32.134Z,13.21
2023-03-12T15:03:49.290Z,13.52
2023-03-12T15:07:04.984Z,12.05
2023-03-12T15:10:25.394Z,14.28
2023-03-12T15:13:32.446Z,14.68
2023-03-12T15:16:39.765Z,14.20
2023-03-12T15:19:52.022Z,14.41
2023-03-12T15:22:59.251Z,13.80
2023-03-12T15:26:15.120Z,17.06
2023-03-12T15:29:30.451Z,16.67
2023-03-12T15:32:37.505Z,17.33
2023-03-12T15:36:04.950Z,15.63
2023-03-12T15:39:32.872Z,15.46
2023-03-12T15:42:53.022Z,13.92
2023-03-12T15:46:05.511Z,16.67
2023-03-12T15:49:29.500Z,16.56
2023-03-12T15:52:40.034Z,20.77
2023-03-12T15:55:52.768Z,17.40
2023-03-12T15:59:23.151Z,16.39
2023-03-12T16:02:39.418Z,15.21
2023-03-12T16:05:47.663Z,23.12
2023-03-12T16:09:03.870Z,29.18
2023-03-12T16:12:14.440Z,23.70
2023-03-12T16:15:29.408Z,30.49
2023-03-12T16:18:36.255Z,32.65
2023-03-12T16:21:42.231Z,33.60
2023-03-12T16:24:51.918Z,28.64
2023-03-12T16:28:03.788Z,26.69
2023-03-12T16:31:18.112Z,24.93
2023-03-12T16:34:24.153Z,21.97
2023-03-12T16:37:32.249Z,17.54
2023-03-12T16:40:46.102Z,17.40
2023-03-12T16:43:57.060Z,16.32
2023-03-12T16:47:10.212Z,15.36
2023-03-12T16:50:28.004Z,20.55
2023-03-12T16:53:33.837Z,19.72
2023-03-12T16:56:51.243Z,18.67
2023-03-12T16:59:57.750Z,17.32
2023-03-12T17:03:08.641Z,19.37
2023-03-12T17:06:21.866Z,23.39
2023-03-12T17:09:28.614Z,25.34
2023-03-12T17:12:42.493Z,24.66
2023-03-12T17:15:51.708Z,24.93
2023-03-12T17:18:59.398Z,24.51
2023-03-12T17:22:09.161Z,23.67
2023-03-12T17:25:26.260Z,26.08
2023-03-12T17:28:36.072Z,27.40
2023-03-12T17:31:45.591Z,26.71
2023-03-12T17:35:10.234Z,25.47
2023-03-12T17:38:28.995Z,25.13
2023-03-12T17:41:43.028Z,23.33
2023-03-12T17:44:51.933Z,21.99
2023-03-12T17:47:58.950Z,21.74
2023-03-12T17:51:14.716Z,23.48
2023-03-12T17:54:22.273Z,26.05
2023-03-12T17:57:30.321Z,24.73
2023-03-12T18:00:40.176Z,24.14
2023-03-12T18:03:50.290Z,25.04
2023-03-12T18:07:24.813Z,30.34
2023-03-12T18:10:32.353Z,31.67
2023-03-12T18:13:42.833Z,29.22
2023-03-12T18:16:56.273Z,25.92
2023-03-12T18:20:08.541Z,27.29
2023-03-12T18:23:14.557Z,23.29
2023-03-12T18:26:21.566Z,21.26
2023-03-12T18:29:27.807Z,21.61
2023-03-12T18:32:39.285Z,19.17
2023-03-12T18:35:49.857Z,20.99
2023-03-12T18:38:59.692Z,26.33
2023-03-12T18:42:05.746Z,29.39
2023-03-12T18:45:13.828Z,28.71
2023-03-12T18:48:22.432Z,29.55
2023-03-12T18:51:29.300Z,26.41
2023-03-12T18:54:40.631Z,26.30
2023-03-12T18:57:53.463Z,25.54
2023-03-12T19:01:15.300Z,25.75
2023-03-12T19:04:38.695Z,23.84
2023-03-12T19:07:45.232Z,24.10
2023-03-12T19:10:52.156Z,27.57
2023-03-12T19:13:58.243Z,29.02
2023-03-12T19:17:05.100Z,29.70
2023-03-12T19:20:16.414Z,27.53
2023-03-12T19:23:23.585Z,27.78
2023-03-12T19:26:29.694Z,27.97
2023-03-12T19:29:36.670Z,27.42
2023-03-12T19:32:44.477Z,27.68
2023-03-12T19:36:00.068Z,28.69
2023-03-12T19:39:15.195Z,28.56
2023-03-12T19:42:27.652Z,30.21
2023-03-12T19:45:40.320Z,31.76
2023-03-12T19:48:52.514Z,24.22
2023-03-12T19:52:01.154Z,23.29
2023-03-12T19:55:21.193Z,23.54
2023-03-12T19:58:33.264Z,23.45
2023-03-12T20:01:43.255Z,21.53
2023-03-12T20:04:49.566Z,20.30
2023-03-12T20:07:59.006Z,20.52
2023-03-12T20:11:07.222Z,20.71
2023-03-12T20:14:14.054Z,20.06
2023-03-12T20:17:20.123Z,19.70
2023-03-12T20:20:27.824Z,18.94
2023-03-12T20:23:41.122Z,18.58
2023-03-12T20:26:48.020Z,18.47
2023-03-12T20:29:56.122Z,18.79
2023-03-12T20:33:03.353Z,18.56
2023-03-12T20:36:11.930Z,19.09
2023-03-12T20:39:21.859Z,18.17
2023-03-12T20:42:27.997Z,18.23
2023-03-12T20:45:36.480Z,18.13
2023-03-12T20:48:45.551Z,20.01
2023-03-12T20:51:52.347Z,20.85
2023-03-12T20:55:00.997Z,20.97
2023-03-12T20:58:13.989Z,25.13
2023-03-12T21:01:20.103Z,27.39
2023-03-12T21:04:28.541Z,27.75
2023-03-12T21:07:37.234Z,30.02
2023-03-12T21:10:55.268Z,30.99
2023-03-12T21:14:02.155Z,35.18
2023-03-12T21:17:13.578Z,28.98
2023-03-12T21:20:19.610Z,27.48
2023-03-12T21:23:26.417Z,30.59
2023-03-12T21:26:35.171Z,30.12
2023-03-12T21:29:42.009Z,27.38
2023-03-12T21:32:53.193Z,25.50
2023-03-12T21:36:00.228Z,24.26
2023-03-12T21:39:06.429Z,25.01
2023-03-12T21:42:15.720Z,24.56
2023-03-12T21:45:22.366Z,22.87
2023-03-12T21:48:29.045Z,21.57
2023-03-12T21:51:34.928Z,20.80
2023-03-12T21:54:42.098Z,20.75
2023-03-12T21:57:51.191Z,20.47
2023-03-12T22:01:06.870Z,19.62
2023-03-12T22:04:12.802Z,18.84
2023-03-12T22:07:40.088Z,20.38
2023-03-12T22:10:46.102Z,21.57
2023-03-12T22:13:55.515Z,20.78
2023-03-12T22:17:01.589Z,17.52
2023-03-12T22:20:10.838Z,15.79
2023-03-12T22:23:16.743Z,15.47
2023-03-12T22:26:27.152Z,13.76
2023-03-12T22:29:36.378Z,14.02
2023-03-12T22:32:45.227Z,13.49
2023-03-12T22:35:52.102Z,13.80
2023-03-12T22:38:58.849Z,15.33
2023-03-12T22:42:04.694Z,13.90
2023-03-12T22:45:14.629Z,12.66
2023-03-12T22:48:20.582Z,11.61
2023-03-12T22:51:36.637Z,11.94
2023-03-12T22:54:42.779Z,13.75
2023-03-12T22:57:56.194Z,11.79
2023-03-12T23:01:08.904Z,12.92
2023-03-12T23:04:15.944Z,12.83
2023-03-12T23:07:21.925Z,11.51
2023-03-12T23:10:28.756Z,10.38
2023-03-12T23:13:38.781Z,11.71
2023-03-12T23:16:48.105Z,9.68
2023-03-12T23:19:54.053Z,11.24
2023-03-12T23:23:00.771Z,10.62
2023-03-12T23:26:06.892Z,10.94
2023-03-12T23:29:15.701Z,11.03
2023-03-12T23:32:29.225Z,10.33
2023-03-12T23:35:48.251Z,10.25
2023-03-12T23:38:54.701Z,9.03
2023-03-12T23:42:08.315Z,8.73
2023-03-12T23:45:19.353Z,8.69
2023-03-12T23:48:30.240Z,9.35
2023-03-12T23:51:37.679Z,10.24
2023-03-12T23:54:45.482Z,10.48
2023-03-12T23:57:51.389Z,11.35
